Pagrindinis puslapis
METAR-TAF:

METAR-TAF

Oro uostai :

Bluefields, Nikaragva

platuma: 12-00N, ilguma: 083-46W, Aukštis: 5 m

Dabartinis oras

Ataskaita buvo paskelbta 4 valandos ir 11 minutes, ne 23:00 UTC
Vėjas 10 kt iš Šiaurės Rytų
Temperatūra 27°C
Drėgmė 89%
Slėgis 1010 hPa
Matomumas: 8000 m
Su prošvaistėmis ne aukštis 1700 ft
netoliese, lietus

METAR: MNBL 172300Z 05010KT 8000 VCRA BKN017 27/25 Q1010 RERA NE E

Laikas: 21:11 (03:11 UTC)

Prognozė

Ataskaita buvo paskelbta 5 valandos ir 41 minutes, ne 21:30 UTC
Prognozė galioja nuo 18 metu 00 UTC su 18 metu 24 UTC
Vėjas 12 kt iš Šiaurės Rytų su gūsio iki 24 kt
Matomumas: 8000 m
Apsiniaukę ne aukštis 1000 ft
Laikinai
nuo 18 metu 20 UTC su 18 metu 23 UTC
Vėjas 10 kt iš Rytų
Matomumas: 7000 m
Su prošvaistėmis ne aukštis 1800 ft
netoliese, lietus

TAF: MNBL 172130Z 1800/1824 05012G24KT 8000 -DZ/RA OVC010 TEMPO 1820/1823 08010KT 7000 VCRA BKN018

Orai ataskaitas ir orų prognozės (METAR, TAF).

turimą stotys yra geltonos ir raudonos taškus žemėlapyje.

Perkelti pele per norėdami pamatyti stoties vardą.

Tada spustelėkite, norėdami matyti oro stebėjimo ir prognozės.

Norėdami pakeisti žemėlapį: spustelėkite ant žalios mygtukų su juodo kryžiaus žemyn,; žalią mygtuką su brūkšneliu, jei norite nutolinti; arba žalių rodyklių gretimoms žemėlapius.


METAR-TAF: